Bonaire, GA

2:28 AM EST on November 23, 2014 (GMT -0500)
Eastpoint Plantation | Change Station
CLOSE
Current Station
Personal Weather Station
Location: Kathleen, GA
Elevation: 335 ft
Nearby Weather Stations

Elev 335 ft 32.51 °N, 83.65 °W | Updated 4 seconds ago

Rain
Rain
56.5 °F
Feels Like 56.5 °F
N
4.0
Wind Variable Wind from East
Gusts 9.0 mph

Today
High -- | Low -- °F
--% Chance of Precip.
Yesterday
High -- | Low -- °F
Precip. -- in
7:11 AM 5:30 PM
New Moon, 1% visible
Pressure 30.12 in
Visibility 8.0 miles
Clouds Mostly Cloudy 800 ft
Overcast 3700 ft
Dew Point 56 °F
Humidity 97%
Rainfall 0.13 in
Snow Depth Not available.
UV 0 out of 12
Pollen 1.70 out of 12
Air Quality Not available.
Flu Activity Not available.
SPECI KWRB 230722Z AUTO 08004KT 8SM R33/5500FT -RA BKN008 OVC037 13/13 A3012 RMK AO2 CIG 008V039 BKN V SCT

More Conditions Fewer Conditions

Pressure 30.12 in
Visibility 8.0 miles
Clouds Mostly Cloudy 800 ft
Overcast 3700 ft
Dew Point 56 °F
Humidity 97%
Rainfall 0.13 in
Snow Depth Not available.
UV 0 out of 12
Pollen 1.70 out of 12
Air Quality Not available.
Flu Activity Not available.
SPECI KWRB 230722Z AUTO 08004KT 8SM R33/5500FT -RA BKN008 OVC037 13/13 A3012 RMK AO2 CIG 008V039 BKN V SCT

More Conditions Fewer Conditions

10-Day Weather Forecast

Almanac

Astronomy

Nov. 23, 2014 Rise Set
Actual Time
Civil Twilight
Nautical Twilight
Astronomical Twilight
Moon
Length of Visible Light
Length of Day
Tomorrow will be .
, % of the Moon is Illuminated

Today's Extremes

State Highs State Lows

Community

WunderPhotos

Upload Photos

1,773,024 photos uploaded!

WunderBlogs® & News

Nearby

Air Quality

  Air Quality AQ Index Pollutant
Not available.

Snow Depth

Station Depth Elevation

Earthquake Activity

City Distance Mag. Time & Date
Minimum magnitude displayed is 2.5.

Coastal Water Temperatures

Place Temperature

Nearby Weather Stations